createdAt,value
2023-02-01T00:01:08.345Z,5.42
2023-02-01T00:07:11.460Z,5.45
2023-02-01T00:13:15.205Z,5.38
2023-02-01T00:19:17.375Z,5.38
2023-02-01T00:25:19.325Z,5.33
2023-02-01T00:31:21.277Z,5.26
2023-02-01T00:37:24.212Z,5.12
2023-02-01T00:43:26.097Z,5.11
2023-02-01T00:49:29.287Z,5.04
2023-02-01T00:55:31.167Z,4.99
2023-02-01T01:01:33.164Z,4.99
2023-02-01T01:07:35.125Z,5.03
2023-02-01T01:13:37.374Z,5.03
2023-02-01T01:19:39.335Z,4.98
2023-02-01T01:25:41.427Z,5.04
2023-02-01T01:31:43.340Z,5.08
2023-02-01T01:37:45.279Z,5.02
2023-02-01T01:44:00.531Z,5.12
2023-02-01T01:50:05.022Z,5.06
2023-02-01T01:56:07.528Z,5.20
2023-02-01T02:02:10.208Z,5.20
2023-02-01T02:08:13.368Z,5.29
2023-02-01T02:14:20.026Z,5.33
2023-02-01T02:20:48.714Z,5.33
2023-02-01T02:27:25.400Z,5.32
2023-02-01T02:33:47.486Z,5.38
2023-02-01T02:40:12.416Z,5.44
2023-02-01T02:46:46.365Z,5.45
2023-02-01T02:53:17.844Z,5.52
2023-02-01T02:59:43.113Z,5.47
2023-02-01T03:05:49.479Z,5.46
2023-02-01T03:12:15.846Z,5.35
2023-02-01T03:18:43.002Z,5.58
2023-02-01T03:24:51.227Z,5.50
2023-02-01T03:30:53.548Z,5.70
2023-02-01T03:37:03.881Z,5.55
2023-02-01T03:43:12.223Z,5.46
2023-02-01T03:49:24.471Z,5.57
2023-02-01T03:55:28.382Z,5.49
2023-02-01T04:01:31.776Z,5.59
2023-02-01T04:07:33.760Z,5.56
2023-02-01T04:13:35.644Z,5.61
2023-02-01T04:19:37.524Z,5.64
2023-02-01T04:25:39.456Z,5.50
2023-02-01T04:31:41.743Z,5.44
2023-02-01T04:37:43.667Z,5.30
2023-02-01T04:43:47.669Z,5.38
2023-02-01T04:49:49.598Z,5.28
2023-02-01T04:55:51.545Z,5.27
2023-02-01T05:01:53.492Z,5.34
2023-02-01T05:07:55.761Z,5.30
2023-02-01T05:13:57.775Z,5.23
2023-02-01T05:19:59.712Z,5.19
2023-02-01T05:26:02.181Z,5.05
2023-02-01T05:32:20.586Z,5.08
2023-02-01T05:38:23.395Z,5.18
2023-02-01T05:44:25.292Z,5.09
2023-02-01T05:50:27.231Z,5.15
2023-02-01T05:56:29.143Z,5.07
2023-02-01T06:02:31.091Z,5.08
2023-02-01T06:08:33.169Z,5.04
2023-02-01T06:14:35.121Z,4.97
2023-02-01T06:20:37.020Z,4.89
2023-02-01T06:26:40.078Z,4.85
2023-02-01T06:32:42.874Z,4.64
2023-02-01T06:38:44.754Z,4.62
2023-02-01T06:44:46.631Z,4.61
2023-02-01T06:50:48.513Z,4.48
2023-02-01T06:56:50.425Z,4.45
2023-02-01T07:02:52.529Z,4.44
2023-02-01T07:08:56.734Z,4.44
2023-02-01T07:14:58.713Z,4.41
2023-02-01T07:21:01.310Z,4.59
2023-02-01T07:27:03.263Z,4.42
2023-02-01T07:33:05.183Z,4.54
2023-02-01T07:39:07.081Z,4.81
2023-02-01T07:45:20.940Z,4.94
2023-02-01T07:51:23.520Z,4.74
2023-02-01T07:57:25.628Z,4.63
2023-02-01T08:03:27.510Z,4.60
2023-02-01T08:09:29.428Z,4.65
2023-02-01T08:15:31.591Z,4.74
2023-02-01T08:21:39.134Z,4.95
2023-02-01T08:27:41.061Z,4.98
2023-02-01T08:33:44.939Z,5.17
2023-02-01T08:39:47.957Z,5.23
2023-02-01T08:45:51.305Z,5.22
2023-02-01T08:51:56.512Z,5.33
2023-02-01T08:58:00.186Z,5.44
2023-02-01T09:04:02.117Z,5.59
2023-02-01T09:10:04.755Z,5.64
2023-02-01T09:16:07.015Z,5.66
2023-02-01T09:22:08.969Z,5.67
2023-02-01T09:28:10.876Z,5.76
2023-02-01T09:34:12.820Z,5.88
2023-02-01T09:40:17.440Z,6.09
2023-02-01T09:46:29.522Z,6.16
2023-02-01T09:53:05.773Z,6.13
2023-02-01T09:59:35.644Z,6.13
2023-02-01T10:06:36.491Z,6.14
2023-02-01T10:13:15.892Z,6.28
2023-02-01T10:19:35.602Z,6.44
2023-02-01T10:26:02.439Z,6.61
2023-02-01T10:32:11.059Z,6.69
2023-02-01T10:38:32.822Z,6.50
2023-02-01T10:44:41.268Z,6.49
2023-02-01T10:51:48.194Z,6.47
2023-02-01T10:58:07.138Z,6.41
2023-02-01T11:04:17.611Z,6.53
2023-02-01T11:10:41.394Z,6.26
2023-02-01T11:16:50.837Z,6.47
2023-02-01T11:22:57.763Z,6.46
2023-02-01T11:29:12.914Z,6.57
2023-02-01T11:35:21.645Z,6.40
2023-02-01T11:41:28.829Z,6.45
2023-02-01T11:47:41.607Z,6.45
2023-02-01T11:54:01.377Z,6.53
2023-02-01T12:00:15.409Z,6.42
2023-02-01T12:06:33.213Z,6.54
2023-02-01T12:12:52.190Z,6.57
2023-02-01T12:19:08.264Z,6.57
2023-02-01T12:25:28.043Z,6.47
2023-02-01T12:31:54.024Z,6.43
2023-02-01T12:38:14.719Z,6.36
2023-02-01T12:45:00.929Z,6.47
2023-02-01T12:51:17.235Z,6.54
2023-02-01T12:57:28.212Z,6.65
2023-02-01T13:03:57.789Z,6.70
2023-02-01T13:10:35.425Z,6.33
2023-02-01T13:16:45.773Z,6.15
2023-02-01T13:23:00.301Z,6.16
2023-02-01T13:29:11.202Z,6.11
2023-02-01T13:35:52.577Z,5.88
2023-02-01T13:42:06.378Z,5.81
2023-02-01T13:48:24.030Z,5.68
2023-02-01T13:54:34.655Z,5.55
2023-02-01T14:00:41.860Z,5.52
2023-02-01T14:06:45.587Z,5.48
2023-02-01T14:12:51.024Z,5.35
2023-02-01T14:19:02.148Z,5.18
2023-02-01T14:25:04.440Z,5.26
2023-02-01T14:31:33.936Z,5.34
2023-02-01T14:37:40.052Z,5.32
2023-02-01T14:44:03.000Z,5.23
2023-02-01T14:50:41.083Z,5.19
2023-02-01T14:56:43.268Z,5.20
2023-02-01T15:02:46.885Z,5.12
2023-02-01T15:08:48.861Z,3.87
2023-02-01T15:15:23.975Z,2.96
2023-02-01T15:21:28.838Z,2.84
2023-02-01T15:27:34.982Z,2.70
2023-02-01T15:33:37.083Z,2.62
2023-02-01T15:40:10.658Z,2.77
2023-02-01T15:46:23.731Z,2.62
2023-02-01T15:52:43.220Z,2.88
2023-02-01T15:58:53.948Z,3.03
2023-02-01T16:04:56.378Z,3.08
2023-02-01T16:11:10.497Z,2.97
2023-02-01T16:17:12.379Z,3.08
2023-02-01T16:23:14.381Z,3.14
2023-02-01T16:29:17.251Z,3.42
2023-02-01T16:35:28.436Z,3.60
2023-02-01T16:41:30.844Z,3.89
2023-02-01T16:47:32.734Z,3.94
2023-02-01T16:53:48.318Z,4.14
2023-02-01T16:59:54.218Z,4.09
2023-02-01T17:05:57.827Z,3.77
2023-02-01T17:11:59.703Z,3.20
2023-02-01T17:18:02.855Z,3.15
2023-02-01T17:24:05.461Z,2.89
2023-02-01T17:30:10.265Z,3.16
2023-02-01T17:36:18.093Z,3.21
2023-02-01T17:42:20.016Z,3.28
2023-02-01T17:48:23.123Z,3.44
2023-02-01T17:54:26.394Z,3.67
2023-02-01T18:00:28.341Z,4.02
2023-02-01T18:06:35.220Z,4.27
2023-02-01T18:12:39.151Z,4.38
2023-02-01T18:18:41.049Z,4.51
2023-02-01T18:24:42.933Z,4.57
2023-02-01T18:30:48.980Z,4.50
2023-02-01T18:36:51.513Z,4.58
2023-02-01T18:42:54.197Z,4.69
2023-02-01T18:48:56.067Z,4.78
2023-02-01T18:55:00.013Z,4.86
2023-02-01T19:01:09.465Z,4.95
2023-02-01T19:07:16.308Z,5.01
2023-02-01T19:13:20.799Z,4.93
2023-02-01T19:19:22.712Z,4.92
2023-02-01T19:25:27.663Z,4.97
2023-02-01T19:31:29.845Z,4.92
2023-02-01T19:37:32.168Z,4.85
2023-02-01T19:43:35.334Z,4.90
2023-02-01T19:49:37.473Z,4.89
2023-02-01T19:55:43.879Z,4.86
2023-02-01T20:01:46.614Z,4.88
2023-02-01T20:07:48.625Z,4.82
2023-02-01T20:13:52.551Z,4.82
2023-02-01T20:19:54.847Z,4.74
2023-02-01T20:26:03.683Z,4.89
2023-02-01T20:32:05.587Z,4.84
2023-02-01T20:38:07.684Z,4.88
2023-02-01T20:44:10.008Z,5.05
2023-02-01T20:50:27.217Z,5.02
2023-02-01T20:56:29.158Z,5.07
2023-02-01T21:02:31.557Z,5.16
2023-02-01T21:08:34.306Z,5.11
2023-02-01T21:14:36.413Z,5.02
2023-02-01T21:20:38.290Z,4.95
2023-02-01T21:26:42.777Z,4.88
2023-02-01T21:32:44.678Z,4.86
2023-02-01T21:38:52.331Z,4.85
2023-02-01T21:44:55.124Z,4.78
2023-02-01T21:50:57.561Z,4.68
2023-02-01T21:56:59.676Z,4.69
2023-02-01T22:03:01.541Z,4.62
2023-02-01T22:09:04.556Z,4.62
2023-02-01T22:15:07.106Z,4.65
2023-02-01T22:21:09.568Z,4.69
2023-02-01T22:27:13.451Z,4.77
2023-02-01T22:33:16.392Z,4.75
2023-02-01T22:39:18.331Z,4.76
2023-02-01T22:45:20.202Z,4.78
2023-02-01T22:51:26.011Z,4.84
2023-02-01T22:57:27.871Z,4.93
2023-02-01T23:03:29.788Z,4.88
2023-02-01T23:09:31.767Z,4.96
2023-02-01T23:15:33.736Z,4.86
2023-02-01T23:21:36.064Z,4.82
2023-02-01T23:27:38.378Z,4.74
2023-02-01T23:33:41.166Z,4.73
2023-02-01T23:39:43.048Z,4.82
2023-02-01T23:45:44.903Z,4.77
2023-02-01T23:51:50.038Z,4.74
2023-02-01T23:57:53.060Z,4.76
